createdAt,value
2022-10-02T00:00:11.562Z,18.51
2022-10-02T00:02:44.489Z,18.27
2022-10-02T00:05:19.442Z,18.20
2022-10-02T00:07:55.109Z,18.24
2022-10-02T00:10:27.590Z,18.19
2022-10-02T00:12:58.285Z,18.12
2022-10-02T00:15:31.598Z,17.96
2022-10-02T00:18:15.092Z,18.11
2022-10-02T00:21:36.293Z,17.97
2022-10-02T00:24:06.972Z,17.75
2022-10-02T00:26:36.849Z,17.99
2022-10-02T00:29:31.794Z,17.98
2022-10-02T00:31:58.868Z,18.03
2022-10-02T00:34:28.392Z,18.09
2022-10-02T00:37:28.444Z,18.00
2022-10-02T00:40:22.931Z,17.98
2022-10-02T00:42:50.228Z,18.03
2022-10-02T00:45:49.799Z,17.89
2022-10-02T00:48:38.798Z,18.05
2022-10-02T00:51:24.170Z,18.21
2022-10-02T00:54:01.601Z,18.32
2022-10-02T00:56:35.527Z,18.02
2022-10-02T00:59:11.446Z,18.10
2022-10-02T01:01:44.059Z,18.00
2022-10-02T01:04:20.773Z,17.76
2022-10-02T01:06:47.583Z,17.76
2022-10-02T01:09:14.413Z,17.55
2022-10-02T01:11:41.265Z,17.66
2022-10-02T01:14:08.157Z,17.68
2022-10-02T01:16:36.155Z,17.58
2022-10-02T01:19:03.736Z,17.72
2022-10-02T01:21:37.698Z,18.16
2022-10-02T01:24:18.739Z,17.97
2022-10-02T01:26:45.745Z,18.06
2022-10-02T01:29:12.545Z,17.99
2022-10-02T01:31:41.424Z,18.07
2022-10-02T01:34:09.674Z,17.96
2022-10-02T01:36:36.845Z,17.92
2022-10-02T01:39:04.193Z,17.92
2022-10-02T01:41:31.411Z,17.85
2022-10-02T01:44:02.673Z,17.86
2022-10-02T01:46:33.203Z,18.06
2022-10-02T01:49:30.279Z,17.99
2022-10-02T01:52:30.355Z,18.00
2022-10-02T01:54:56.941Z,17.97
2022-10-02T01:57:48.167Z,17.90
2022-10-02T02:00:18.797Z,17.73
2022-10-02T02:02:48.755Z,17.72
2022-10-02T02:05:18.386Z,17.53
2022-10-02T02:08:22.169Z,17.44
2022-10-02T02:11:04.156Z,17.43
2022-10-02T02:13:46.064Z,17.59
2022-10-02T02:16:34.484Z,17.40
2022-10-02T02:19:30.249Z,17.67
2022-10-02T02:22:30.125Z,17.73
2022-10-02T02:25:24.692Z,17.71
2022-10-02T02:27:56.935Z,17.62
2022-10-02T02:30:24.977Z,17.41
2022-10-02T02:33:01.322Z,17.48
2022-10-02T02:35:34.333Z,17.35
2022-10-02T02:38:07.074Z,17.28
2022-10-02T02:40:39.629Z,17.49
2022-10-02T02:43:13.456Z,17.40
2022-10-02T02:45:51.178Z,17.32
2022-10-02T02:48:22.444Z,17.47
2022-10-02T02:51:00.564Z,17.27
2022-10-02T02:53:37.396Z,17.26
2022-10-02T02:56:08.410Z,17.55
2022-10-02T02:58:45.240Z,17.33
2022-10-02T03:01:12.193Z,17.35
2022-10-02T03:03:39.031Z,17.47
2022-10-02T03:06:21.836Z,17.36
2022-10-02T03:08:51.790Z,17.36
2022-10-02T03:11:46.369Z,17.26
2022-10-02T03:14:39.127Z,17.18
2022-10-02T03:17:24.696Z,17.23
2022-10-02T03:20:08.995Z,16.92
2022-10-02T03:22:51.138Z,17.30
2022-10-02T03:25:30.008Z,17.35
2022-10-02T03:28:07.526Z,17.39
2022-10-02T03:30:37.827Z,17.16
2022-10-02T03:33:06.107Z,17.14
2022-10-02T03:35:33.735Z,17.22
2022-10-02T03:38:20.375Z,17.19
2022-10-02T03:40:47.178Z,16.99
2022-10-02T03:43:22.895Z,16.79
2022-10-02T03:45:51.950Z,17.10
2022-10-02T03:48:19.058Z,16.91
2022-10-02T03:50:46.363Z,16.98
2022-10-02T03:53:20.160Z,16.83
2022-10-02T03:55:54.332Z,16.95
2022-10-02T03:58:22.092Z,16.89
2022-10-02T04:00:58.640Z,17.01
2022-10-02T04:03:34.203Z,16.94
2022-10-02T04:06:15.706Z,16.85
2022-10-02T04:08:56.407Z,16.61
2022-10-02T04:11:26.476Z,16.75
2022-10-02T04:14:15.116Z,16.59
2022-10-02T04:17:01.389Z,16.50
2022-10-02T04:19:43.444Z,16.64
2022-10-02T04:22:39.429Z,16.60
2022-10-02T04:25:22.633Z,16.63
2022-10-02T04:28:34.740Z,16.37
2022-10-02T04:31:03.015Z,16.21
2022-10-02T04:33:29.956Z,16.20
2022-10-02T04:36:20.825Z,16.26
2022-10-02T04:39:19.698Z,16.18
2022-10-02T04:42:07.734Z,16.50
2022-10-02T04:44:55.944Z,16.48
2022-10-02T04:47:44.673Z,16.97
2022-10-02T04:50:42.029Z,17.13
2022-10-02T04:53:20.936Z,17.39
2022-10-02T04:55:55.789Z,17.55
2022-10-02T04:58:34.690Z,17.66
2022-10-02T05:01:18.609Z,17.41
2022-10-02T05:04:03.740Z,17.35
2022-10-02T05:06:37.274Z,16.90
2022-10-02T05:09:19.095Z,16.90
2022-10-02T05:12:10.759Z,17.13
2022-10-02T05:14:38.017Z,17.19
2022-10-02T05:17:13.921Z,16.96
2022-10-02T05:19:57.481Z,16.97
2022-10-02T05:22:34.629Z,16.99
2022-10-02T05:25:01.563Z,17.02
2022-10-02T05:27:40.281Z,17.09
2022-10-02T05:30:14.998Z,17.15
2022-10-02T05:32:55.083Z,17.17
2022-10-02T05:35:35.462Z,17.07
2022-10-02T05:38:23.976Z,17.18
2022-10-02T05:40:56.672Z,17.21
2022-10-02T05:43:50.775Z,17.17
2022-10-02T05:46:26.408Z,17.16
2022-10-02T05:48:59.247Z,17.22
2022-10-02T05:51:37.694Z,17.24
2022-10-02T05:54:16.786Z,17.14
2022-10-02T05:56:48.391Z,17.25
2022-10-02T05:59:15.133Z,17.23
2022-10-02T06:01:47.711Z,17.02
2022-10-02T06:04:20.399Z,17.28
2022-10-02T06:06:54.324Z,17.13
2022-10-02T06:09:27.349Z,16.96
2022-10-02T06:12:06.493Z,16.86
2022-10-02T06:14:48.528Z,16.70
2022-10-02T06:17:27.693Z,16.31
2022-10-02T06:20:03.514Z,16.26
2022-10-02T06:22:41.866Z,16.18
2022-10-02T06:25:19.924Z,16.18
2022-10-02T06:27:56.092Z,15.62
2022-10-02T06:30:23.433Z,16.04
2022-10-02T06:32:58.944Z,16.19
2022-10-02T06:35:51.732Z,16.27
2022-10-02T06:38:33.550Z,16.30
2022-10-02T06:41:38.053Z,16.50
2022-10-02T06:44:32.241Z,16.67
2022-10-02T06:47:35.187Z,16.77
2022-10-02T06:50:30.614Z,16.76
2022-10-02T06:53:12.606Z,16.84
2022-10-02T06:55:45.458Z,16.86
2022-10-02T06:58:36.898Z,16.83
2022-10-02T07:01:09.669Z,16.79
2022-10-02T07:03:56.281Z,16.98
2022-10-02T07:06:46.105Z,17.02
2022-10-02T07:10:27.456Z,17.08
2022-10-02T07:13:06.084Z,17.27
2022-10-02T07:15:44.774Z,17.17
2022-10-02T07:18:36.415Z,17.31
2022-10-02T07:21:25.010Z,17.63
2022-10-02T07:24:07.898Z,17.79
2022-10-02T07:26:47.440Z,17.94
2022-10-02T07:29:20.591Z,18.00
2022-10-02T07:32:14.965Z,18.10
2022-10-02T07:34:52.104Z,18.30
2022-10-02T07:37:35.984Z,18.34
2022-10-02T07:40:18.145Z,18.62
2022-10-02T07:43:00.284Z,18.79
2022-10-02T07:46:03.588Z,18.86
2022-10-02T07:49:03.121Z,19.09
2022-10-02T07:51:50.516Z,19.13
2022-10-02T07:54:17.360Z,19.43
2022-10-02T07:56:47.594Z,19.47
2022-10-02T07:59:18.033Z,19.72
2022-10-02T08:01:47.917Z,19.66
2022-10-02T08:04:19.440Z,19.95
2022-10-02T08:06:48.016Z,19.84
2022-10-02T08:09:23.813Z,20.33
2022-10-02T08:11:58.234Z,20.56
2022-10-02T08:14:41.300Z,20.79
2022-10-02T08:17:39.819Z,20.87
2022-10-02T08:20:31.589Z,21.55
2022-10-02T08:23:16.573Z,21.78
2022-10-02T08:25:50.384Z,22.35
2022-10-02T08:28:24.390Z,23.17
2022-10-02T08:30:52.225Z,23.31
2022-10-02T08:33:21.509Z,23.91
2022-10-02T08:35:48.199Z,24.19
2022-10-02T08:38:35.612Z,24.35
2022-10-02T08:41:28.089Z,24.96
2022-10-02T08:44:01.229Z,25.51
2022-10-02T08:47:06.457Z,25.84
2022-10-02T08:49:36.318Z,26.46
2022-10-02T08:52:21.709Z,26.59
2022-10-02T08:55:33.290Z,26.79
2022-10-02T08:58:14.909Z,27.37
2022-10-02T09:00:58.725Z,27.57
2022-10-02T09:03:28.692Z,28.32
2022-10-02T09:06:20.964Z,28.62
2022-10-02T09:09:08.817Z,29.10
2022-10-02T09:11:54.921Z,29.50
2022-10-02T09:14:58.084Z,29.66
2022-10-02T09:17:55.643Z,29.87
2022-10-02T09:20:41.639Z,30.27
2022-10-02T09:23:27.254Z,30.55
2022-10-02T09:26:18.802Z,30.62
2022-10-02T09:29:20.626Z,30.40
2022-10-02T09:31:50.498Z,30.79
2022-10-02T09:34:55.248Z,30.88
2022-10-02T09:37:50.533Z,30.91
2022-10-02T09:40:35.959Z,31.34
2022-10-02T09:43:33.793Z,31.45
2022-10-02T09:46:21.290Z,31.58
2022-10-02T09:49:09.471Z,31.76
2022-10-02T09:52:10.297Z,31.85
2022-10-02T09:55:08.506Z,32.19
2022-10-02T09:57:57.207Z,32.52
2022-10-02T10:00:37.956Z,32.46
2022-10-02T10:03:14.079Z,32.63
2022-10-02T10:05:49.230Z,32.70
2022-10-02T10:08:36.592Z,32.75
2022-10-02T10:11:31.268Z,32.61
2022-10-02T10:14:46.106Z,32.44
2022-10-02T10:17:59.940Z,32.77
2022-10-02T10:20:54.364Z,33.08
2022-10-02T10:23:51.656Z,33.13
2022-10-02T10:26:55.637Z,33.05
2022-10-02T10:29:28.284Z,33.34
2022-10-02T10:32:10.412Z,33.38
2022-10-02T10:34:55.361Z,33.40
2022-10-02T10:37:56.124Z,33.61
2022-10-02T10:40:32.724Z,34.01
2022-10-02T10:43:38.031Z,34.04
2022-10-02T10:46:53.905Z,33.46
2022-10-02T10:49:30.752Z,34.03
2022-10-02T10:52:07.622Z,34.05
2022-10-02T10:54:59.202Z,34.25
2022-10-02T10:57:44.879Z,34.18
2022-10-02T11:00:34.159Z,33.77
2022-10-02T11:03:27.922Z,33.32
2022-10-02T11:06:26.593Z,33.83
2022-10-02T11:08:59.919Z,35.19
2022-10-02T11:11:33.247Z,35.62
2022-10-02T11:14:09.039Z,35.94
2022-10-02T11:17:04.887Z,35.82
2022-10-02T11:19:47.792Z,35.87
2022-10-02T11:23:00.946Z,35.73
2022-10-02T11:25:45.863Z,35.16
2022-10-02T11:28:12.750Z,35.22
2022-10-02T11:30:42.595Z,35.02
2022-10-02T11:34:06.424Z,35.08
2022-10-02T11:36:52.746Z,35.83
2022-10-02T11:39:22.717Z,36.36
2022-10-02T11:41:59.515Z,36.99
2022-10-02T11:44:38.846Z,37.61
2022-10-02T11:47:34.838Z,38.11
2022-10-02T11:50:44.363Z,39.00
2022-10-02T11:53:39.286Z,39.75
2022-10-02T11:56:39.410Z,40.54
2022-10-02T11:59:24.687Z,40.84
2022-10-02T12:01:54.617Z,41.26
2022-10-02T12:04:47.385Z,42.09
2022-10-02T12:07:45.162Z,42.71
2022-10-02T12:10:55.325Z,43.33
2022-10-02T12:13:54.938Z,43.41
2022-10-02T12:16:34.698Z,43.76
2022-10-02T12:19:35.921Z,44.26
2022-10-02T12:22:37.524Z,44.65
2022-10-02T12:25:36.351Z,44.80
2022-10-02T12:28:21.739Z,44.86
2022-10-02T12:30:51.641Z,45.11
2022-10-02T12:33:35.604Z,45.18
2022-10-02T12:36:35.254Z,45.47
2022-10-02T12:39:40.487Z,45.28
2022-10-02T12:42:11.853Z,45.73
2022-10-02T12:44:39.508Z,45.85
2022-10-02T12:47:26.745Z,46.05
2022-10-02T12:49:59.795Z,45.89
2022-10-02T12:52:45.005Z,46.11
2022-10-02T12:55:30.265Z,45.99
2022-10-02T12:58:31.718Z,45.69
2022-10-02T13:04:16.692Z,45.77
2022-10-02T13:06:52.501Z,46.01
2022-10-02T13:09:53.226Z,44.29
2022-10-02T13:12:51.146Z,40.81
2022-10-02T13:15:33.979Z,38.30
2022-10-02T13:18:16.965Z,36.94
2022-10-02T13:21:10.126Z,35.67
2022-10-02T13:23:58.439Z,34.72
2022-10-02T13:26:54.744Z,33.57
2022-10-02T13:29:42.976Z,32.97
2022-10-02T13:32:42.538Z,32.01
2022-10-02T13:35:22.380Z,31.53
2022-10-02T13:38:26.778Z,30.97
2022-10-02T13:41:13.461Z,30.37
2022-10-02T13:43:46.963Z,29.94
2022-10-02T13:46:13.656Z,29.82
2022-10-02T13:49:06.460Z,29.52
2022-10-02T13:52:24.248Z,29.11
2022-10-02T13:55:09.127Z,28.94
2022-10-02T13:58:03.661Z,28.72
2022-10-02T14:00:39.478Z,28.56
2022-10-02T14:03:31.621Z,28.52
2022-10-02T14:06:29.843Z,28.29
2022-10-02T14:09:18.203Z,28.33
2022-10-02T14:11:50.764Z,28.26
2022-10-02T14:14:29.676Z,28.21
2022-10-02T14:17:37.960Z,28.09
2022-10-02T14:20:33.677Z,28.09
2022-10-02T14:23:18.397Z,28.04
2022-10-02T14:25:54.222Z,27.89
2022-10-02T14:28:24.141Z,27.88
2022-10-02T14:31:09.909Z,27.83
2022-10-02T14:33:51.980Z,27.83
2022-10-02T14:36:56.298Z,27.76
2022-10-02T14:39:26.177Z,27.78
2022-10-02T14:42:06.446Z,27.75
2022-10-02T14:44:53.295Z,27.54
2022-10-02T14:47:47.898Z,27.67
2022-10-02T14:50:41.005Z,27.64
2022-10-02T14:53:36.098Z,27.62
2022-10-02T14:56:40.439Z,27.62
2022-10-02T14:59:10.119Z,27.55
2022-10-02T15:02:14.805Z,27.25
2022-10-02T15:05:04.622Z,27.28
2022-10-02T15:07:34.908Z,27.27
2022-10-02T15:10:19.592Z,27.22
2022-10-02T15:13:03.004Z,27.16
2022-10-02T15:15:38.686Z,27.27
2022-10-02T15:18:21.182Z,27.22
2022-10-02T15:21:05.678Z,27.23
2022-10-02T15:23:50.649Z,27.14
2022-10-02T15:26:26.236Z,27.26
2022-10-02T15:29:22.425Z,27.26
2022-10-02T15:32:46.497Z,27.20
2022-10-02T15:35:26.133Z,27.12
2022-10-02T15:38:21.788Z,27.06
2022-10-02T15:41:12.597Z,27.04
2022-10-02T15:44:15.992Z,26.96
2022-10-02T15:46:59.165Z,26.97
2022-10-02T15:49:36.932Z,26.86
2022-10-02T15:52:12.748Z,26.87
2022-10-02T15:55:16.065Z,26.79
2022-10-02T15:58:04.518Z,26.80
2022-10-02T16:01:01.724Z,26.65
2022-10-02T16:03:54.077Z,26.68
2022-10-02T16:06:53.736Z,26.66
2022-10-02T16:09:27.977Z,26.62
2022-10-02T16:12:02.716Z,26.62
2022-10-02T16:14:52.629Z,26.41
2022-10-02T16:17:29.706Z,26.45
2022-10-02T16:20:05.762Z,26.44
2022-10-02T16:22:48.201Z,26.47
2022-10-02T16:25:58.747Z,26.40
2022-10-02T16:28:39.542Z,26.43
2022-10-02T16:31:22.803Z,26.37
2022-10-02T16:34:07.075Z,26.34
2022-10-02T16:37:03.054Z,26.23
2022-10-02T16:39:36.202Z,26.33
2022-10-02T16:42:20.590Z,26.31
2022-10-02T16:45:13.509Z,26.28
2022-10-02T16:47:52.556Z,26.22
2022-10-02T16:50:33.200Z,26.12
2022-10-02T16:53:08.175Z,26.10
2022-10-02T16:55:35.477Z,26.13
2022-10-02T16:58:42.246Z,26.00
2022-10-02T17:01:27.968Z,25.98
2022-10-02T17:03:58.028Z,26.04
2022-10-02T17:06:33.151Z,25.93
2022-10-02T17:09:22.190Z,26.02
2022-10-02T17:12:04.246Z,25.99
2022-10-02T17:14:39.980Z,25.98
2022-10-02T17:17:20.550Z,25.89
2022-10-02T17:19:53.233Z,25.82
2022-10-02T17:22:27.339Z,25.60
2022-10-02T17:25:06.791Z,25.70
2022-10-02T17:27:33.452Z,25.68
2022-10-02T17:30:24.463Z,25.64
2022-10-02T17:33:13.145Z,25.57
2022-10-02T17:36:12.740Z,25.61
2022-10-02T17:38:58.273Z,25.49
2022-10-02T17:41:51.023Z,25.39
2022-10-02T17:44:26.420Z,25.21
2022-10-02T17:47:12.661Z,25.16
2022-10-02T17:50:05.644Z,24.78
2022-10-02T17:53:06.905Z,24.92
2022-10-02T17:56:23.867Z,24.67
2022-10-02T17:59:09.015Z,24.73
2022-10-02T18:02:25.293Z,24.56
2022-10-02T18:05:04.182Z,24.47
2022-10-02T18:08:14.778Z,24.35
2022-10-02T18:11:03.885Z,24.15
2022-10-02T18:13:46.237Z,24.16
2022-10-02T18:16:36.936Z,23.99
2022-10-02T18:19:30.311Z,23.79
2022-10-02T18:22:09.088Z,23.67
2022-10-02T18:24:39.802Z,23.61
2022-10-02T18:27:44.162Z,23.55
2022-10-02T18:30:25.089Z,23.52
2022-10-02T18:32:58.694Z,23.58
2022-10-02T18:35:39.353Z,23.48
2022-10-02T18:38:44.189Z,23.12
2022-10-02T18:41:46.522Z,23.38
2022-10-02T18:44:35.122Z,23.28
2022-10-02T18:47:28.830Z,23.20
2022-10-02T18:50:33.937Z,23.16
2022-10-02T18:53:08.653Z,23.12
2022-10-02T18:56:04.696Z,23.02
2022-10-02T18:59:12.976Z,22.92
2022-10-02T19:02:12.091Z,23.01
2022-10-02T19:04:50.573Z,23.03
2022-10-02T19:07:29.580Z,23.03
2022-10-02T19:10:29.313Z,23.02
2022-10-02T19:13:17.635Z,22.92
2022-10-02T19:15:46.961Z,22.95
2022-10-02T19:18:25.521Z,23.00
2022-10-02T19:21:08.395Z,23.00
2022-10-02T19:23:35.836Z,23.00
2022-10-02T19:26:08.011Z,22.96
2022-10-02T19:28:46.161Z,22.98
2022-10-02T19:31:20.521Z,22.97
2022-10-02T19:34:13.586Z,23.06
2022-10-02T19:36:50.403Z,23.01
2022-10-02T19:39:33.886Z,22.93
2022-10-02T19:42:07.289Z,22.99
2022-10-02T19:44:47.918Z,22.88
2022-10-02T19:47:41.264Z,22.97
2022-10-02T19:50:23.503Z,22.94
2022-10-02T19:53:06.997Z,22.98
2022-10-02T19:55:41.272Z,22.92
2022-10-02T19:58:14.232Z,22.97
2022-10-02T20:00:42.420Z,22.96
2022-10-02T20:03:19.167Z,22.89
2022-10-02T20:05:49.728Z,22.88
2022-10-02T20:08:20.075Z,22.97
2022-10-02T20:11:01.849Z,22.94
2022-10-02T20:13:44.649Z,22.81
2022-10-02T20:16:37.793Z,22.93
2022-10-02T20:19:07.728Z,22.87
2022-10-02T20:21:49.471Z,22.79
2022-10-02T20:24:24.714Z,22.75
2022-10-02T20:26:56.145Z,22.68
2022-10-02T20:29:29.142Z,22.61
2022-10-02T20:32:07.992Z,22.73
2022-10-02T20:34:47.682Z,22.72
2022-10-02T20:37:29.579Z,22.61
2022-10-02T20:40:06.792Z,22.79
2022-10-02T20:42:48.673Z,22.81
2022-10-02T20:45:15.997Z,22.81
2022-10-02T20:48:09.078Z,22.83
2022-10-02T20:51:02.008Z,22.82
2022-10-02T20:54:08.748Z,22.83
2022-10-02T20:56:41.325Z,22.85
2022-10-02T20:59:23.382Z,22.86
2022-10-02T21:02:15.072Z,22.85
2022-10-02T21:05:19.032Z,22.85
2022-10-02T21:08:00.864Z,22.86
2022-10-02T21:10:34.774Z,22.90
2022-10-02T21:13:24.422Z,22.78
2022-10-02T21:16:16.144Z,22.74
2022-10-02T21:19:09.705Z,22.70
2022-10-02T21:21:54.217Z,22.68
2022-10-02T21:24:38.705Z,22.65
2022-10-02T21:27:42.578Z,22.65
2022-10-02T21:30:18.126Z,22.69
2022-10-02T21:33:05.392Z,22.69
2022-10-02T21:36:05.735Z,22.70
2022-10-02T21:38:47.431Z,22.76
2022-10-02T21:41:30.141Z,22.73
2022-10-02T21:44:22.615Z,22.68
2022-10-02T21:47:08.381Z,22.69
2022-10-02T21:49:59.667Z,22.64
2022-10-02T21:52:47.447Z,22.58
2022-10-02T21:55:27.131Z,22.66
2022-10-02T21:58:28.528Z,22.67
2022-10-02T22:00:59.705Z,22.68
2022-10-02T22:03:29.882Z,22.73
2022-10-02T22:06:22.798Z,22.76
2022-10-02T22:09:16.629Z,22.52
2022-10-02T22:12:04.650Z,22.58
2022-10-02T22:14:39.711Z,22.54
2022-10-02T22:17:12.332Z,22.50
2022-10-02T22:20:21.269Z,22.38
2022-10-02T22:23:09.468Z,22.35
2022-10-02T22:25:54.966Z,22.31
2022-10-02T22:28:34.619Z,22.44
2022-10-02T22:31:24.272Z,22.36
2022-10-02T22:34:00.029Z,22.34
2022-10-02T22:36:45.414Z,22.44
2022-10-02T22:39:30.592Z,22.46
2022-10-02T22:42:12.835Z,22.36
2022-10-02T22:44:56.655Z,22.28
2022-10-02T22:47:38.646Z,22.63
2022-10-02T22:50:11.887Z,22.55
2022-10-02T22:52:43.152Z,22.63
2022-10-02T22:55:55.678Z,22.64
2022-10-02T22:58:37.211Z,22.73
2022-10-02T23:01:32.440Z,22.56
2022-10-02T23:04:03.962Z,22.32
2022-10-02T23:06:41.416Z,22.27
2022-10-02T23:09:13.128Z,22.07
2022-10-02T23:12:07.666Z,22.08
2022-10-02T23:14:52.777Z,21.92
2022-10-02T23:17:43.375Z,21.84
2022-10-02T23:20:24.349Z,21.75
2022-10-02T23:22:54.426Z,21.69
2022-10-02T23:25:37.079Z,21.63
2022-10-02T23:28:11.268Z,21.59
2022-10-02T23:30:49.108Z,21.52
2022-10-02T23:33:39.045Z,21.20
2022-10-02T23:36:13.811Z,21.26
2022-10-02T23:38:46.988Z,21.38
2022-10-02T23:41:47.220Z,21.20
2022-10-02T23:44:41.790Z,21.25
2022-10-02T23:47:21.093Z,21.32
2022-10-02T23:49:53.446Z,21.55
2022-10-02T23:52:32.221Z,21.70
2022-10-02T23:55:19.101Z,21.81
2022-10-02T23:58:02.581Z,21.84
